createdAt,value
2019-01-13T00:02:27.483Z,14.73
2019-01-13T00:06:27.505Z,14.27
2019-01-13T00:10:25.918Z,14.50
2019-01-13T00:14:30.314Z,13.63
2019-01-13T00:18:28.747Z,15.70
2019-01-13T00:22:27.190Z,15.40
2019-01-13T00:26:25.581Z,12.73
2019-01-13T00:30:23.990Z,13.60
2019-01-13T00:34:22.389Z,13.50
2019-01-13T00:38:20.773Z,13.47
2019-01-13T00:42:19.227Z,13.93
2019-01-13T00:46:17.622Z,14.30
2019-01-13T00:50:16.626Z,13.70
2019-01-13T00:54:15.015Z,15.17
2019-01-13T00:58:13.478Z,15.47
2019-01-13T01:02:11.870Z,17.73
2019-01-13T01:06:10.421Z,12.53
2019-01-13T01:10:14.659Z,15.90
2019-01-13T01:14:13.279Z,16.10
2019-01-13T01:18:11.668Z,15.47
2019-01-13T01:22:10.054Z,14.67
2019-01-13T01:26:14.551Z,14.67
2019-01-13T01:30:16.325Z,13.50
2019-01-13T01:34:14.707Z,14.30
2019-01-13T01:38:13.089Z,16.87
2019-01-13T01:42:11.401Z,17.00
2019-01-13T01:46:09.802Z,15.50
2019-01-13T01:50:10.939Z,15.07
2019-01-13T01:54:09.397Z,13.60
2019-01-13T01:58:07.790Z,17.03
2019-01-13T02:02:06.413Z,13.77
2019-01-13T02:06:05.105Z,15.77
2019-01-13T02:10:06.282Z,16.43
2019-01-13T02:14:04.718Z,17.13
2019-01-13T02:18:03.094Z,12.27
2019-01-13T02:22:01.492Z,15.63
2019-01-13T02:26:00.139Z,17.83
2019-01-13T02:29:58.506Z,15.00
2019-01-13T02:34:01.654Z,20.17
2019-01-13T02:38:00.018Z,16.83
2019-01-13T02:41:58.421Z,20.07
2019-01-13T02:45:57.158Z,19.57
2019-01-13T02:49:55.604Z,19.70
2019-01-13T02:53:53.923Z,18.37
2019-01-13T02:57:52.292Z,14.83
2019-01-13T03:01:50.680Z,21.20
2019-01-13T03:05:49.059Z,22.83
2019-01-13T03:09:47.442Z,22.77
2019-01-13T03:13:45.846Z,21.70
2019-01-13T03:17:44.224Z,20.03
2019-01-13T03:21:42.560Z,18.27
2019-01-13T03:25:42.875Z,15.37
2019-01-13T03:29:44.574Z,14.47
2019-01-13T03:33:43.522Z,14.93
2019-01-13T03:37:41.910Z,11.13
2019-01-13T03:41:40.260Z,9.00
2019-01-13T03:45:39.958Z,9.43
2019-01-13T03:49:41.049Z,8.30
2019-01-13T03:53:39.448Z,7.40
2019-01-13T03:57:43.950Z,8.13
2019-01-13T04:01:42.575Z,8.10
2019-01-13T04:05:40.915Z,7.03
2019-01-13T04:09:57.729Z,7.60
2019-01-13T04:13:58.814Z,8.27
2019-01-13T04:17:57.293Z,9.90
2019-01-13T04:22:00.403Z,10.87
2019-01-13T04:25:58.735Z,10.60
2019-01-13T04:29:57.473Z,12.00
2019-01-13T04:33:56.422Z,10.40
2019-01-13T04:37:54.796Z,11.60
2019-01-13T04:41:53.161Z,9.93
2019-01-13T04:45:54.474Z,10.57
2019-01-13T04:49:55.199Z,11.53
2019-01-13T04:53:56.011Z,12.17
2019-01-13T04:57:54.643Z,13.47
2019-01-13T05:01:53.032Z,11.80
2019-01-13T05:05:51.412Z,12.23
2019-01-13T05:09:49.820Z,13.17
2019-01-13T05:13:48.186Z,11.60
2019-01-13T05:17:48.594Z,9.53
2019-01-13T05:21:47.285Z,11.37
2019-01-13T05:25:46.057Z,12.43
2019-01-13T05:29:44.384Z,11.63
2019-01-13T05:33:42.832Z,11.23
2019-01-13T05:37:41.206Z,8.70
2019-01-13T05:41:39.938Z,12.43
2019-01-13T05:45:39.774Z,11.93
2019-01-13T05:49:38.180Z,10.80
2019-01-13T05:53:36.605Z,10.77
2019-01-13T05:57:34.991Z,11.03
2019-01-13T06:01:34.067Z,11.07
2019-01-13T06:05:32.952Z,9.97
2019-01-13T06:09:32.290Z,10.17
2019-01-13T06:13:30.692Z,8.97
2019-01-13T06:17:29.063Z,9.47
2019-01-13T06:21:27.380Z,8.53
2019-01-13T06:25:27.704Z,7.50
2019-01-13T06:29:26.075Z,6.63
2019-01-13T06:33:24.471Z,5.63
2019-01-13T06:37:22.851Z,4.80
2019-01-13T06:41:22.079Z,5.47
2019-01-13T06:45:22.343Z,3.50
2019-01-13T06:49:21.080Z,3.37
2019-01-13T06:53:19.452Z,2.60
2019-01-13T06:57:19.775Z,3.40
2019-01-13T07:01:20.873Z,2.57
2019-01-13T07:05:19.331Z,4.13
2019-01-13T07:09:17.731Z,3.50
2019-01-13T07:13:17.939Z,2.73
2019-01-13T07:17:20.982Z,3.07
2019-01-13T07:21:16.320Z,2.20
2019-01-13T07:25:17.530Z,2.20
2019-01-13T07:29:15.904Z,2.80
2019-01-13T07:33:14.286Z,2.73
2019-01-13T07:37:12.648Z,2.80
2019-01-13T07:41:12.672Z,2.33
2019-01-13T07:45:17.675Z,3.53
2019-01-13T07:49:16.043Z,3.90
2019-01-13T07:53:14.364Z,3.53
2019-01-13T07:57:12.765Z,4.10
2019-01-13T08:01:11.438Z,3.70
2019-01-13T08:05:09.862Z,3.77
2019-01-13T08:09:08.268Z,2.93
2019-01-13T08:13:06.666Z,3.67
2019-01-13T08:17:05.048Z,4.13
2019-01-13T08:21:03.493Z,4.43
2019-01-13T08:25:01.828Z,4.17
2019-01-13T08:29:00.246Z,5.00
2019-01-13T08:32:58.587Z,5.37
2019-01-13T08:36:56.940Z,4.43
2019-01-13T08:40:55.306Z,5.37
2019-01-13T08:44:53.671Z,5.20
2019-01-13T08:48:52.049Z,6.50
2019-01-13T08:52:50.427Z,6.43
2019-01-13T08:56:48.801Z,6.17
2019-01-13T09:00:47.200Z,6.10
2019-01-13T09:04:45.576Z,7.37
2019-01-13T09:08:43.949Z,6.57
2019-01-13T09:12:46.306Z,7.07
2019-01-13T09:16:44.661Z,7.33
2019-01-13T09:20:47.660Z,6.77
2019-01-13T09:24:47.462Z,6.30
2019-01-13T09:28:49.139Z,7.17
2019-01-13T09:32:47.533Z,5.80
2019-01-13T09:36:45.903Z,7.40
2019-01-13T09:40:44.311Z,7.63
2019-01-13T09:44:42.681Z,7.63
2019-01-13T09:48:41.658Z,7.83
2019-01-13T09:52:40.269Z,8.40
2019-01-13T09:56:38.641Z,9.93
2019-01-13T10:00:37.072Z,12.23
2019-01-13T10:04:35.472Z,12.17
2019-01-13T10:08:33.885Z,13.30
2019-01-13T10:12:32.279Z,10.30
2019-01-13T10:16:30.942Z,11.23
2019-01-13T10:20:31.267Z,10.53
2019-01-13T10:24:29.617Z,10.97
2019-01-13T10:28:31.694Z,14.63
2019-01-13T10:32:29.838Z,14.43
2019-01-13T10:36:28.236Z,13.70
2019-01-13T10:40:28.137Z,11.57
2019-01-13T10:44:26.551Z,11.83
2019-01-13T10:48:24.895Z,8.30
2019-01-13T10:52:23.255Z,10.40
2019-01-13T10:56:23.382Z,9.77
2019-01-13T11:00:25.018Z,8.60
2019-01-13T11:04:23.408Z,9.90
2019-01-13T11:08:22.503Z,9.00
2019-01-13T11:12:20.899Z,8.43
2019-01-13T11:16:19.305Z,7.80
2019-01-13T11:20:23.104Z,7.80
2019-01-13T11:24:21.480Z,6.63
2019-01-13T11:28:19.889Z,6.53
2019-01-13T11:32:18.550Z,5.87
2019-01-13T11:36:16.889Z,6.33
2019-01-13T11:40:20.851Z,5.97
2019-01-13T11:44:19.239Z,5.83
2019-01-13T11:48:17.624Z,5.93
2019-01-13T11:52:15.977Z,5.27
2019-01-13T11:56:14.366Z,5.60
2019-01-13T12:00:27.016Z,5.60
2019-01-13T12:04:26.926Z,4.77
2019-01-13T12:12:30.972Z,4.97
2019-01-13T12:16:29.382Z,4.30
2019-01-13T12:20:35.743Z,4.50
2019-01-13T12:24:34.089Z,5.23
2019-01-13T12:28:32.474Z,4.33
2019-01-13T12:32:30.825Z,4.73
2019-01-13T12:36:29.266Z,4.07
2019-01-13T12:40:30.198Z,4.77
2019-01-13T12:44:28.550Z,4.40
2019-01-13T12:48:30.237Z,4.93
2019-01-13T12:52:28.612Z,5.30
2019-01-13T12:56:26.999Z,4.83
2019-01-13T13:00:26.528Z,5.13
2019-01-13T13:04:24.897Z,5.27
2019-01-13T13:08:23.261Z,4.93
2019-01-13T13:12:21.685Z,5.30
2019-01-13T13:16:20.067Z,5.10
2019-01-13T13:20:18.466Z,4.20
2019-01-13T13:24:17.150Z,3.50
2019-01-13T13:28:15.535Z,3.80
2019-01-13T13:32:13.917Z,4.40
2019-01-13T13:36:12.222Z,3.63
2019-01-13T13:40:14.225Z,4.00
2019-01-13T13:44:12.617Z,4.40
2019-01-13T13:48:11.007Z,3.80
2019-01-13T13:52:09.377Z,4.13
2019-01-13T13:56:07.774Z,4.00
2019-01-13T14:00:24.008Z,4.60
2019-01-13T14:04:22.423Z,4.60
2019-01-13T14:08:20.809Z,3.87
2019-01-13T14:12:19.200Z,4.80
2019-01-13T14:16:17.579Z,4.83
2019-01-13T14:20:18.301Z,3.93
2019-01-13T14:24:16.683Z,3.77
2019-01-13T14:28:15.069Z,3.97
2019-01-13T14:32:16.263Z,4.40
2019-01-13T14:36:14.639Z,4.13
2019-01-13T14:40:20.727Z,4.93
2019-01-13T14:44:19.121Z,4.83
2019-01-13T14:48:17.468Z,5.20
2019-01-13T14:52:19.480Z,5.23
2019-01-13T14:56:17.859Z,4.97
2019-01-13T15:00:19.334Z,5.10
2019-01-13T15:04:18.017Z,4.83
2019-01-13T15:08:16.394Z,5.83
2019-01-13T15:12:14.804Z,5.77
2019-01-13T15:16:13.142Z,5.77
2019-01-13T15:20:14.042Z,5.93
2019-01-13T15:24:12.675Z,6.90
2019-01-13T15:28:11.385Z,7.53
2019-01-13T15:32:09.771Z,7.20
2019-01-13T15:36:08.191Z,7.23
2019-01-13T15:40:09.840Z,8.03
2019-01-13T15:44:08.270Z,7.97
2019-01-13T15:48:06.598Z,9.33
2019-01-13T15:52:04.990Z,9.60
2019-01-13T15:56:03.446Z,9.33
2019-01-13T16:00:01.818Z,11.07
2019-01-13T16:04:00.236Z,11.23
2019-01-13T16:07:58.635Z,10.60
2019-01-13T16:11:56.986Z,9.77
2019-01-13T16:15:55.416Z,8.47
2019-01-13T16:19:53.787Z,8.67
2019-01-13T16:24:13.107Z,9.27
2019-01-13T16:28:11.510Z,10.10
2019-01-13T16:32:13.017Z,8.97
2019-01-13T16:36:13.223Z,10.27
2019-01-13T16:40:14.567Z,9.97
2019-01-13T16:44:12.959Z,9.37
2019-01-13T16:48:20.797Z,8.90
2019-01-13T16:52:19.169Z,10.10
2019-01-13T16:56:17.568Z,7.63
2019-01-13T17:00:22.496Z,9.13
2019-01-13T17:04:20.839Z,8.83
2019-01-13T17:08:19.167Z,9.23
2019-01-13T17:12:17.539Z,9.70
2019-01-13T17:16:15.934Z,8.97
2019-01-13T17:20:16.597Z,9.07
2019-01-13T17:24:14.938Z,8.60
2019-01-13T17:28:13.339Z,7.90
2019-01-13T17:32:12.112Z,7.37
2019-01-13T17:36:16.202Z,8.80
2019-01-13T17:40:17.153Z,9.90
2019-01-13T17:44:15.917Z,7.13
2019-01-13T17:48:14.618Z,8.00
2019-01-13T17:52:13.038Z,7.70
2019-01-13T17:56:11.395Z,7.90
2019-01-13T18:00:16.887Z,5.93
2019-01-13T18:04:31.118Z,6.53
2019-01-13T18:08:29.654Z,2.50
2019-01-13T18:12:27.984Z,1.97
2019-01-13T18:16:26.352Z,1.83
2019-01-13T18:20:24.715Z,1.47
2019-01-13T18:24:23.112Z,1.60
2019-01-13T18:28:21.508Z,1.83
2019-01-13T18:32:19.893Z,1.73
2019-01-13T18:36:18.407Z,2.10
2019-01-13T18:40:19.110Z,1.83
2019-01-13T18:44:17.513Z,1.40
2019-01-13T18:48:15.894Z,1.80
2019-01-13T18:52:17.380Z,2.07
2019-01-13T18:56:15.679Z,2.50
2019-01-13T19:00:17.139Z,1.80
2019-01-13T19:04:16.948Z,2.47
2019-01-13T19:08:15.340Z,2.77
2019-01-13T19:12:13.696Z,2.67
2019-01-13T19:16:18.140Z,2.40
2019-01-13T19:20:16.512Z,2.40
2019-01-13T19:24:14.864Z,2.73
2019-01-13T19:28:13.618Z,3.23
2019-01-13T19:32:11.981Z,3.00
2019-01-13T19:36:10.396Z,2.90
2019-01-13T19:40:12.113Z,2.53
2019-01-13T19:44:10.477Z,2.50
2019-01-13T19:48:12.561Z,2.97
2019-01-13T19:52:12.301Z,3.43
2019-01-13T19:56:10.608Z,2.30
2019-01-13T20:00:15.164Z,2.53
2019-01-13T20:04:13.516Z,3.63
2019-01-13T20:08:11.917Z,3.23
2019-01-13T20:12:10.892Z,3.70
2019-01-13T20:16:09.703Z,3.40
2019-01-13T20:20:11.430Z,3.30
2019-01-13T20:24:09.789Z,3.83
2019-01-13T20:28:08.190Z,4.10
2019-01-13T20:32:09.294Z,3.80
2019-01-13T20:36:07.703Z,3.33
2019-01-13T20:40:14.395Z,5.17
2019-01-13T20:44:12.774Z,4.23
2019-01-13T20:48:11.137Z,4.17
2019-01-13T20:52:10.890Z,4.40
2019-01-13T20:56:09.285Z,3.47
2019-01-13T21:00:26.381Z,3.20
2019-01-13T21:04:24.829Z,3.70
2019-01-13T21:08:25.997Z,4.00
2019-01-13T21:12:24.495Z,3.73
2019-01-13T21:16:26.759Z,3.63
2019-01-13T21:20:25.141Z,2.97
2019-01-13T21:24:23.503Z,2.40
2019-01-13T21:28:21.885Z,2.20
2019-01-13T21:32:20.276Z,2.47
2019-01-13T21:36:18.662Z,2.17
2019-01-13T21:40:17.030Z,1.90
2019-01-13T21:44:15.768Z,2.93
2019-01-13T21:48:14.569Z,2.40
2019-01-13T21:52:12.926Z,2.03
2019-01-13T21:56:11.314Z,1.70
2019-01-13T22:00:17.270Z,1.80
2019-01-13T22:04:19.974Z,1.73
2019-01-13T22:08:18.666Z,2.07
2019-01-13T22:12:20.738Z,1.87
2019-01-13T22:16:20.807Z,2.40
2019-01-13T22:20:21.430Z,2.53
2019-01-13T22:24:19.806Z,2.33
2019-01-13T22:28:18.198Z,2.73
2019-01-13T22:32:16.862Z,2.93
2019-01-13T22:36:17.445Z,3.30
2019-01-13T22:40:36.865Z,2.43
2019-01-13T22:44:35.284Z,2.87
2019-01-13T22:48:33.645Z,3.17
2019-01-13T22:52:31.962Z,3.03
2019-01-13T22:56:30.355Z,2.97
2019-01-13T23:00:33.790Z,3.63
2019-01-13T23:04:32.175Z,3.30
2019-01-13T23:12:49.970Z,4.40
2019-01-13T23:16:48.722Z,4.07
2019-01-13T23:20:49.437Z,4.00
2019-01-13T23:24:47.834Z,4.57
2019-01-13T23:28:46.209Z,4.87
2019-01-13T23:32:44.565Z,4.33
2019-01-13T23:36:44.615Z,3.97
2019-01-13T23:40:42.996Z,3.97
2019-01-13T23:44:42.363Z,3.17
2019-01-13T23:48:58.457Z,3.77
2019-01-13T23:52:58.219Z,3.20
2019-01-13T23:56:56.756Z,3.43
